首页
METAR-TAF:

METAR-TAF

机场 :

符牌國際機場

順化, 越南

纬度: 16-24N, 经度: 107-41E, 海拔: 17米

当前天气观测

该预报发布于30分钟前的00:00 UTC
风速3节,风向西
温度 22°C
湿度 100%
气压 1013 hPa
能見度: 2000
轻雾

METAR: VVPB 190000Z 26003KT 2000 BR NSC 22/22 Q1013 NOSIG

时间: 07:30 (00:30 UTC)

预报

该预报发布于1小时和30分钟前的23:00 UTC
预报有效从19日的 00点(UTC)到 19日的 24点(UTC)
风速2节,风向多变
能見度: 2000
少量云层高于1300英尺
散云层高于6000英尺
轻雾
成为
从 19日的 00点(UTC)到 19日的 01点(UTC)
能見度: 4000
轻雾
成为
从 19日的 01点(UTC)到 19日的 02点(UTC)
能見度: 8000
成为
从 19日的 03点(UTC)到 19日的 04点(UTC)
风速10节,风向
成为
从 19日的 13点(UTC)到 19日的 14点(UTC)
风速3节,风向西南
能見度: 4500
轻雾

TAF: VVPB 182300Z 1900/1924 VRB02KT 2000 BR FEW013 SCT060 BECMG 1900/1901 4000 BR BECMG 1901/1902 8000 NSW BECMG 1903/1904 08010KT BECMG 1913/1914 22003KT 4500 BR

超过4000个机场的气象观测和天气预报(METAR&TAF报告)。

可查询的气象台以黄色和红色小点在地图上表示。

将鼠标移到小点上方,可查看气象台名称。

然后点击查看天气观测和预报。

如需切换地图:点击带黑十字的绿色按钮放大地图;点击带横线的绿色按钮缩小地图;或者点击绿色箭头查看邻近地区的地图。


METAR-TAF: